createdAt,value
2023-03-23T16:01:39.682Z,23.30
2023-03-23T16:06:43.952Z,23.05
2023-03-23T16:11:47.165Z,17.60
2023-03-23T16:16:53.161Z,16.27
2023-03-23T16:26:59.358Z,20.73
2023-03-23T16:32:02.620Z,17.83
2023-03-23T16:37:07.181Z,24.65
2023-03-23T16:42:10.290Z,19.55
2023-03-23T16:47:13.451Z,16.02
2023-03-23T16:52:16.840Z,16.80
2023-03-23T16:57:20.200Z,26.70
2023-03-23T17:02:23.235Z,25.55
2023-03-23T17:07:26.411Z,19.27
2023-03-23T17:12:29.477Z,22.92
2023-03-23T17:17:32.662Z,17.95
2023-03-23T17:22:36.863Z,19.92
2023-03-23T17:27:40.427Z,24.83
2023-03-23T17:32:43.620Z,23.70
2023-03-23T17:37:46.758Z,24.90
2023-03-23T17:42:50.007Z,19.00
2023-03-23T17:47:53.111Z,17.05
2023-03-23T17:52:57.249Z,20.33
2023-03-23T17:58:00.265Z,17.85
2023-03-23T18:03:03.481Z,18.98
2023-03-23T18:08:07.715Z,19.95
2023-03-23T18:13:11.355Z,17.42
2023-03-23T18:18:14.424Z,18.20
2023-03-23T18:23:17.497Z,25.42
2023-03-23T18:28:21.900Z,17.38
2023-03-23T18:33:26.061Z,20.38
2023-03-23T18:38:29.434Z,21.83
2023-03-23T18:43:32.569Z,22.42
2023-03-23T18:48:36.658Z,21.17
2023-03-23T18:53:40.909Z,15.13
2023-03-23T18:58:45.314Z,21.48
2023-03-23T19:03:48.664Z,20.10
2023-03-23T19:08:53.767Z,19.98
2023-03-23T19:14:03.048Z,21.33
2023-03-23T19:19:10.232Z,14.52
2023-03-23T19:24:13.247Z,23.17
2023-03-23T19:29:26.678Z,19.13
2023-03-23T19:34:31.333Z,23.25
2023-03-23T19:39:35.093Z,23.70
2023-03-23T19:44:38.141Z,26.75
2023-03-23T19:49:41.370Z,24.60
2023-03-23T19:54:44.537Z,17.52
2023-03-23T19:59:48.357Z,10.82
2023-03-23T20:04:51.452Z,13.90
2023-03-23T20:09:54.655Z,12.85
2023-03-23T20:14:59.091Z,20.20
2023-03-23T20:20:02.320Z,21.95
2023-03-23T20:25:08.170Z,23.60
2023-03-23T20:30:12.239Z,13.60
2023-03-23T20:35:16.578Z,11.55
2023-03-23T20:40:20.972Z,13.10
2023-03-23T20:45:24.428Z,13.07
2023-03-23T20:50:27.464Z,15.13
2023-03-23T20:55:30.467Z,11.10
2023-03-23T21:00:33.523Z,17.00
2023-03-23T21:05:36.745Z,11.85
2023-03-23T21:10:40.234Z,11.30
2023-03-23T21:15:44.084Z,19.83
2023-03-23T21:20:47.440Z,22.65
2023-03-23T21:25:51.166Z,14.40
2023-03-23T21:30:55.018Z,17.23
2023-03-23T21:35:58.281Z,11.95
2023-03-23T21:41:08.251Z,13.88
2023-03-23T21:46:14.354Z,12.50
2023-03-23T21:51:28.357Z,17.17
2023-03-23T21:56:31.937Z,7.32
2023-03-23T22:01:37.345Z,15.00
2023-03-23T22:06:41.215Z,18.27
2023-03-23T22:11:44.289Z,17.52
2023-03-23T22:16:47.419Z,26.70
2023-03-23T22:21:50.749Z,35.33
2023-03-23T22:26:53.820Z,31.58
2023-03-23T22:31:56.798Z,38.40
2023-03-23T22:36:59.850Z,37.53
2023-03-23T22:42:03.309Z,25.13
2023-03-23T22:47:06.385Z,14.02
2023-03-23T22:52:09.464Z,12.95
2023-03-23T22:57:12.516Z,13.15
2023-03-23T23:02:15.947Z,24.13
2023-03-23T23:07:19.994Z,21.70
2023-03-23T23:12:23.048Z,16.67
2023-03-23T23:17:26.891Z,30.38
2023-03-23T23:22:29.958Z,42.22
2023-03-23T23:27:34.258Z,28.15
2023-03-23T23:32:37.830Z,26.00
2023-03-23T23:37:40.931Z,40.70
2023-03-23T23:42:45.948Z,38.10
2023-03-23T23:47:49.020Z,35.70
2023-03-23T23:52:52.608Z,40.90
2023-03-23T23:57:56.264Z,32.50
